Terminal Aerodrome Forecast
Issued by NWS Nashville, TN

Home | Current Version | Previous Version | Text Only | Print | Product List | Glossary On
Versions: 1 2 3 4 5 6 7 8 9 10 11 12 13 14 15 16 17 18 19 20 21 22 23 24 25 26 27
000
FTUS44 KOHX 272314 AAE
TAFBNA
TAF AMD
KBNA 272314Z 2723/2818 21005KT P6SM SCT040 BKN200
     FM280030 20006KT 4SM -TSRA BR BKN030CB
      TEMPO 2801/2803 VRB25G40KT 1SM TSRA BR BKN015CB
     FM280300 20006KT P6SM BKN040
     FM280600 19007KT 3SM -TSRA BR OVC015CB=

USA.gov is the U.S. government's official web portal to all federal, state and local government web resources and services.